sensor_id;sensor_type;location;lat;lon;timestamp;pressure;altitude;pressure_sealevel;temperature;humidity
46347;BME280;32057;47.830;19.046;2023-02-20T00:01:18;100926.47;;;3.44;82.66
46347;BME280;32057;47.830;19.046;2023-02-20T00:03:45;100929.66;;;3.39;83.03
46347;BME280;32057;47.830;19.046;2023-02-20T00:06:10;100942.41;;;3.38;83.15
46347;BME280;32057;47.830;19.046;2023-02-20T00:08:36;100925.91;;;3.34;83.32
46347;BME280;32057;47.830;19.046;2023-02-20T00:11:01;100932.66;;;3.32;83.73
46347;BME280;32057;47.830;19.046;2023-02-20T00:13:27;100920.75;;;3.19;83.17
46347;BME280;32057;47.830;19.046;2023-02-20T00:15:52;100929.34;;;3.20;84.10
46347;BME280;32057;47.830;19.046;2023-02-20T00:18:18;100920.81;;;3.21;83.20
46347;BME280;32057;47.830;19.046;2023-02-20T00:20:43;100922.53;;;3.21;83.65
46347;BME280;32057;47.830;19.046;2023-02-20T00:23:09;100922.53;;;3.21;82.08
46347;BME280;32057;47.830;19.046;2023-02-20T00:25:34;100926.78;;;3.20;83.24
46347;BME280;32057;47.830;19.046;2023-02-20T00:28:00;100929.34;;;3.20;82.03
46347;BME280;32057;47.830;19.046;2023-02-20T00:30:25;100930.75;;;3.15;82.71
46347;BME280;32057;47.830;19.046;2023-02-20T00:32:52;100933.31;;;3.15;82.87
46347;BME280;32057;47.830;19.046;2023-02-20T00:35:18;100929.59;;;3.10;82.29
46347;BME280;32057;47.830;19.046;2023-02-20T00:37:48;100931.19;;;3.08;84.24
46347;BME280;32057;47.830;19.046;2023-02-20T00:40:15;100927.44;;;3.03;83.52
46347;BME280;32057;47.830;19.046;2023-02-20T00:42:42;100924.78;;;3.01;83.58
46347;BME280;32057;47.830;19.046;2023-02-20T00:45:08;100933.09;;;2.97;83.45
46347;BME280;32057;47.830;19.046;2023-02-20T00:47:34;100921.94;;;2.96;83.17
46347;BME280;32057;47.830;19.046;2023-02-20T00:49:59;100930.88;;;2.88;83.49
46347;BME280;32057;47.830;19.046;2023-02-20T00:52:25;100923.94;;;2.87;83.42
46347;BME280;32057;47.830;19.046;2023-02-20T00:54:50;100918.41;;;2.94;82.31
46347;BME280;32057;47.830;19.046;2023-02-20T00:57:16;100924.03;;;2.89;82.62
46347;BME280;32057;47.830;19.046;2023-02-20T00:59:41;100915.56;;;2.90;82.14
46347;BME280;32057;47.830;19.046;2023-02-20T01:02:07;100930.50;;;2.82;82.84
46347;BME280;32057;47.830;19.046;2023-02-20T01:04:33;100932.72;;;2.76;83.44
46347;BME280;32057;47.830;19.046;2023-02-20T01:06:58;100932.41;;;2.71;84.06
46347;BME280;32057;47.830;19.046;2023-02-20T01:09:24;100931.78;;;2.75;82.64
46347;BME280;32057;47.830;19.046;2023-02-20T01:11:50;100930.88;;;2.88;81.61
46347;BME280;32057;47.830;19.046;2023-02-20T01:14:16;100926.72;;;2.90;80.81
46347;BME280;32057;47.830;19.046;2023-02-20T01:16:50;100920.91;;;2.79;81.83
46347;BME280;32057;47.830;19.046;2023-02-20T01:19:16;100926.38;;;2.71;82.56
46347;BME280;32057;47.830;19.046;2023-02-20T01:21:42;100928.09;;;2.57;84.19
46347;BME280;32057;47.830;19.046;2023-02-20T01:24:08;100932.34;;;2.56;82.85
46347;BME280;32057;47.830;19.046;2023-02-20T01:26:33;100936.69;;;2.57;83.12
46347;BME280;32057;47.830;19.046;2023-02-20T01:29:00;100938.69;;;2.48;84.40
46347;BME280;32057;47.830;19.046;2023-02-20T01:31:26;100937.00;;;2.49;85.10
46347;BME280;32057;47.830;19.046;2023-02-20T01:33:51;100933.78;;;2.38;85.58
46347;BME280;32057;47.830;19.046;2023-02-20T01:36:17;100931.63;;;2.31;86.53
46347;BME280;32057;47.830;19.046;2023-02-20T01:38:42;100935.06;;;2.31;87.34
46347;BME280;32057;47.830;19.046;2023-02-20T01:41:09;100938.44;;;2.30;87.43
46347;BME280;32057;47.830;19.046;2023-02-20T01:43:35;100937.34;;;2.27;87.77
46347;BME280;32057;47.830;19.046;2023-02-20T01:49:07;100938.22;;;2.41;88.00
46347;BME280;32057;47.830;19.046;2023-02-20T01:51:39;100946.19;;;2.45;87.37
46347;BME280;32057;47.830;19.046;2023-02-20T01:54:07;100943.25;;;2.52;88.04
46347;BME280;32057;47.830;19.046;2023-02-20T01:56:34;100945.09;;;2.55;87.58
46347;BME280;32057;47.830;19.046;2023-02-20T01:59:00;100948.16;;;2.63;87.13
46347;BME280;32057;47.830;19.046;2023-02-20T02:01:26;100953.50;;;2.66;87.44
46347;BME280;32057;47.830;19.046;2023-02-20T02:03:56;100948.34;;;2.66;86.80
46347;BME280;32057;47.830;19.046;2023-02-20T02:06:24;100957.78;;;2.52;87.51
46347;BME280;32057;47.830;19.046;2023-02-20T02:08:51;100965.94;;;2.59;88.18
46347;BME280;32057;47.830;19.046;2023-02-20T02:11:19;100963.34;;;2.59;87.25
46347;BME280;32057;47.830;19.046;2023-02-20T02:13:47;100968.81;;;2.64;88.61
46347;BME280;32057;47.830;19.046;2023-02-20T02:25:12;100987.94;;;2.28;89.89
46347;BME280;32057;47.830;19.046;2023-02-20T02:28:02;100985.34;;;2.14;91.47
46347;BME280;32057;47.830;19.046;2023-02-20T02:36:38;101012.91;;;1.65;92.41
46347;BME280;32057;47.830;19.046;2023-02-20T02:47:21;101024.06;;;2.04;93.51
46347;BME280;32057;47.830;19.046;2023-02-20T02:50:05;101020.28;;;1.99;93.31
46347;BME280;32057;47.830;19.046;2023-02-20T02:52:33;101023.72;;;1.86;94.90
46347;BME280;32057;47.830;19.046;2023-02-20T02:55:25;101020.34;;;1.87;95.06
46347;BME280;32057;47.830;19.046;2023-02-20T02:57:51;101020.13;;;1.71;96.34
46347;BME280;32057;47.830;19.046;2023-02-20T03:00:38;101024.78;;;1.76;97.47
46347;BME280;32057;47.830;19.046;2023-02-20T03:05:56;101027.41;;;1.90;95.30
46347;BME280;32057;47.830;19.046;2023-02-20T03:11:10;101028.94;;;1.74;94.91
46347;BME280;32057;47.830;19.046;2023-02-20T03:13:48;101020.44;;;1.75;96.54
46347;BME280;32057;47.830;19.046;2023-02-20T03:19:11;101027.00;;;1.58;99.83
46347;BME280;32057;47.830;19.046;2023-02-20T03:21:40;101024.16;;;1.54;100.00
46347;BME280;32057;47.830;19.046;2023-02-20T03:24:08;101029.28;;;1.54;99.69
46347;BME280;32057;47.830;19.046;2023-02-20T03:26:36;101030.97;;;1.67;100.00
46347;BME280;32057;47.830;19.046;2023-02-20T03:29:10;101017.78;;;1.74;100.00
46347;BME280;32057;47.830;19.046;2023-02-20T03:31:42;101016.88;;;1.73;100.00
46347;BME280;32057;47.830;19.046;2023-02-20T03:34:14;101019.47;;;1.87;99.25
46347;BME280;32057;47.830;19.046;2023-02-20T03:37:10;101028.97;;;2.01;99.09
46347;BME280;32057;47.830;19.046;2023-02-20T03:39:58;101030.75;;;2.02;99.70
46347;BME280;32057;47.830;19.046;2023-02-20T03:42:46;101038.25;;;1.99;100.00
46347;BME280;32057;47.830;19.046;2023-02-20T03:45:31;101045.75;;;1.96;100.00
46347;BME280;32057;47.830;19.046;2023-02-20T03:48:03;101044.38;;;2.01;100.00
46347;BME280;32057;47.830;19.046;2023-02-20T03:50:31;101047.25;;;1.67;100.00
46347;BME280;32057;47.830;19.046;2023-02-20T03:53:15;101041.53;;;1.58;100.00
46347;BME280;32057;47.830;19.046;2023-02-20T03:55:41;101041.13;;;1.65;100.00
46347;BME280;32057;47.830;19.046;2023-02-20T03:58:09;101047.94;;;1.65;100.00
46347;BME280;32057;47.830;19.046;2023-02-20T04:00:43;101039.44;;;1.66;100.00
46347;BME280;32057;47.830;19.046;2023-02-20T04:03:18;101037.88;;;1.68;100.00
46347;BME280;32057;47.830;19.046;2023-02-20T04:05:46;101033.84;;;1.71;100.00
46347;BME280;32057;47.830;19.046;2023-02-20T04:08:16;101034.66;;;1.70;100.00
46347;BME280;32057;47.830;19.046;2023-02-20T04:10:54;101034.81;;;1.60;100.00
46347;BME280;32057;47.830;19.046;2023-02-20T04:13:22;101037.00;;;1.67;100.00
46347;BME280;32057;47.830;19.046;2023-02-20T04:15:48;101032.91;;;1.83;100.00
46347;BME280;32057;47.830;19.046;2023-02-20T04:18:17;101025.81;;;1.92;100.00
46347;BME280;32057;47.830;19.046;2023-02-20T04:20:50;101027.09;;;1.98;100.00
46347;BME280;32057;47.830;19.046;2023-02-20T04:23:21;101028.50;;;2.07;100.00
46347;BME280;32057;47.830;19.046;2023-02-20T04:25:55;101027.13;;;2.12;100.00
46347;BME280;32057;47.830;19.046;2023-02-20T04:28:22;101030.09;;;2.18;100.00
46347;BME280;32057;47.830;19.046;2023-02-20T04:30:48;101029.50;;;2.22;100.00
46347;BME280;32057;47.830;19.046;2023-02-20T04:33:14;101034.03;;;2.26;100.00
46347;BME280;32057;47.830;19.046;2023-02-20T04:35:40;101023.06;;;2.29;100.00
46347;BME280;32057;47.830;19.046;2023-02-20T04:38:06;101026.63;;;2.31;100.00
46347;BME280;32057;47.830;19.046;2023-02-20T04:40:32;101021.31;;;2.28;100.00
46347;BME280;32057;47.830;19.046;2023-02-20T04:42:58;101022.47;;;2.33;100.00
46347;BME280;32057;47.830;19.046;2023-02-20T04:45:23;101024.94;;;2.31;100.00
46347;BME280;32057;47.830;19.046;2023-02-20T04:47:48;101024.34;;;2.35;100.00
46347;BME280;32057;47.830;19.046;2023-02-20T04:50:26;101026.84;;;2.34;100.00
46347;BME280;32057;47.830;19.046;2023-02-20T04:52:53;101030.06;;;2.31;100.00
46347;BME280;32057;47.830;19.046;2023-02-20T04:55:19;101026.13;;;2.36;100.00
46347;BME280;32057;47.830;19.046;2023-02-20T04:57:48;101024.28;;;2.34;100.00
46347;BME280;32057;47.830;19.046;2023-02-20T05:00:16;101018.22;;;2.33;100.00
46347;BME280;32057;47.830;19.046;2023-02-20T05:02:42;101024.44;;;2.37;100.00
46347;BME280;32057;47.830;19.046;2023-02-20T05:05:23;101023.84;;;2.41;100.00
46347;BME280;32057;47.830;19.046;2023-02-20T05:07:53;101020.50;;;2.42;100.00
46347;BME280;32057;47.830;19.046;2023-02-20T05:10:20;101029.22;;;2.44;100.00
46347;BME280;32057;47.830;19.046;2023-02-20T05:12:46;101025.22;;;2.49;100.00
46347;BME280;32057;47.830;19.046;2023-02-20T05:15:12;101038.88;;;2.48;100.00
46347;BME280;32057;47.830;19.046;2023-02-20T05:17:37;101042.81;;;2.56;99.95
46347;BME280;32057;47.830;19.046;2023-02-20T05:20:04;101036.28;;;2.62;99.61
46347;BME280;32057;47.830;19.046;2023-02-20T05:22:31;101039.34;;;2.69;99.74
46347;BME280;32057;47.830;19.046;2023-02-20T05:24:56;101042.22;;;2.74;99.40
46347;BME280;32057;47.830;19.046;2023-02-20T05:27:22;101036.97;;;2.72;98.32
46347;BME280;32057;47.830;19.046;2023-02-20T05:29:50;101033.72;;;2.75;98.88
46347;BME280;32057;47.830;19.046;2023-02-20T05:32:17;101043.81;;;2.72;98.18
46347;BME280;32057;47.830;19.046;2023-02-20T05:34:43;101047.97;;;2.70;98.19
46347;BME280;32057;47.830;19.046;2023-02-20T05:37:09;101050.53;;;2.70;98.27
46347;BME280;32057;47.830;19.046;2023-02-20T05:39:35;101049.13;;;2.75;97.68
46347;BME280;32057;47.830;19.046;2023-02-20T05:42:00;101048.94;;;2.72;97.75
46347;BME280;32057;47.830;19.046;2023-02-20T05:44:26;101056.34;;;2.81;98.46
46347;BME280;32057;47.830;19.046;2023-02-20T05:46:51;101060.38;;;2.77;97.67
46347;BME280;32057;47.830;19.046;2023-02-20T05:49:18;101046.16;;;2.82;98.73
46347;BME280;32057;47.830;19.046;2023-02-20T05:51:44;101044.47;;;2.83;97.80
46347;BME280;32057;47.830;19.046;2023-02-20T05:54:10;101048.41;;;2.77;96.69
46347;BME280;32057;47.830;19.046;2023-02-20T05:56:35;101046.78;;;2.78;96.80
46347;BME280;32057;47.830;19.046;2023-02-20T05:59:04;101054.25;;;2.75;97.93
46347;BME280;32057;47.830;19.046;2023-02-20T06:01:30;101064.81;;;2.79;97.44
46347;BME280;32057;47.830;19.046;2023-02-20T06:03:56;101063.06;;;2.78;98.01
46347;BME280;32057;47.830;19.046;2023-02-20T06:06:23;101071.47;;;2.76;97.46
46347;BME280;32057;47.830;19.046;2023-02-20T06:08:48;101066.34;;;2.76;97.97
46347;BME280;32057;47.830;19.046;2023-02-20T06:11:14;101074.81;;;2.88;96.72
46347;BME280;32057;47.830;19.046;2023-02-20T06:13:41;101077.78;;;2.94;96.38
46347;BME280;32057;47.830;19.046;2023-02-20T06:16:08;101077.38;;;3.02;97.33
46347;BME280;32057;47.830;19.046;2023-02-20T06:18:37;101084.56;;;3.07;97.23
46347;BME280;32057;47.830;19.046;2023-02-20T06:21:06;101090.63;;;3.08;97.99
46347;BME280;32057;47.830;19.046;2023-02-20T06:23:31;101085.66;;;3.11;97.60
46347;BME280;32057;47.830;19.046;2023-02-20T06:25:57;101073.97;;;3.16;98.31
46347;BME280;32057;47.830;19.046;2023-02-20T06:28:22;101075.06;;;3.19;98.07
46347;BME280;32057;47.830;19.046;2023-02-20T06:30:48;101076.56;;;3.16;97.30
46347;BME280;32057;47.830;19.046;2023-02-20T06:33:14;101070.81;;;3.20;98.88
46347;BME280;32057;47.830;19.046;2023-02-20T06:35:40;101083.44;;;3.17;97.62
46347;BME280;32057;47.830;19.046;2023-02-20T06:38:05;101079.78;;;3.13;96.26
46347;BME280;32057;47.830;19.046;2023-02-20T06:40:31;101069.72;;;3.16;97.59
46347;BME280;32057;47.830;19.046;2023-02-20T06:42:56;101073.53;;;3.23;97.55
46347;BME280;32057;47.830;19.046;2023-02-20T06:45:21;101085.19;;;3.31;97.48
46347;BME280;32057;47.830;19.046;2023-02-20T06:47:47;101087.69;;;3.30;97.86
46347;BME280;32057;47.830;19.046;2023-02-20T06:50:12;101094.94;;;3.22;99.15
46347;BME280;32057;47.830;19.046;2023-02-20T06:52:38;101096.69;;;3.23;100.00
46347;BME280;32057;47.830;19.046;2023-02-20T06:55:03;101100.44;;;3.28;100.00
46347;BME280;32057;47.830;19.046;2023-02-20T06:57:31;101106.38;;;3.27;100.00
46347;BME280;32057;47.830;19.046;2023-02-20T06:59:57;101095.69;;;3.34;100.00
46347;BME280;32057;47.830;19.046;2023-02-20T07:02:22;101091.63;;;3.38;100.00
46347;BME280;32057;47.830;19.046;2023-02-20T07:04:48;101087.72;;;3.45;99.17
46347;BME280;32057;47.830;19.046;2023-02-20T07:07:14;101097.31;;;3.47;96.42
46347;BME280;32057;47.830;19.046;2023-02-20T07:09:39;101090.78;;;3.52;97.00
46347;BME280;32057;47.830;19.046;2023-02-20T07:12:05;101080.59;;;3.54;97.09
46347;BME280;32057;47.830;19.046;2023-02-20T07:14:30;101087.84;;;3.46;95.40
46347;BME280;32057;47.830;19.046;2023-02-20T07:16:56;101090.16;;;3.56;92.94
46347;BME280;32057;47.830;19.046;2023-02-20T07:19:21;101103.03;;;3.56;91.20
46347;BME280;32057;47.830;19.046;2023-02-20T07:21:47;101103.91;;;3.57;92.47
46347;BME280;32057;47.830;19.046;2023-02-20T07:24:12;101097.38;;;3.62;92.86
46347;BME280;32057;47.830;19.046;2023-02-20T07:26:38;101109.63;;;3.66;94.78
46347;BME280;32057;47.830;19.046;2023-02-20T07:29:05;101108.75;;;3.66;94.80
46347;BME280;32057;47.830;19.046;2023-02-20T07:31:30;101116.63;;;3.69;95.10
46347;BME280;32057;47.830;19.046;2023-02-20T07:33:57;101118.50;;;3.71;94.86
46347;BME280;32057;47.830;19.046;2023-02-20T07:36:22;101117.09;;;3.76;95.61
46347;BME280;32057;47.830;19.046;2023-02-20T07:38:53;101118.19;;;3.80;94.89
46347;BME280;32057;47.830;19.046;2023-02-20T07:41:18;101109.84;;;3.84;93.92
46347;BME280;32057;47.830;19.046;2023-02-20T07:43:44;101109.94;;;3.86;94.80
46347;BME280;32057;47.830;19.046;2023-02-20T07:46:09;101116.59;;;3.82;97.00
46347;BME280;32057;47.830;19.046;2023-02-20T07:48:35;101109.66;;;3.81;98.32
46347;BME280;32057;47.830;19.046;2023-02-20T07:51:01;101104.63;;;3.54;98.91
46347;BME280;32057;47.830;19.046;2023-02-20T07:53:26;101105.47;;;3.68;100.00
46347;BME280;32057;47.830;19.046;2023-02-20T07:55:52;101106.72;;;3.75;100.00
46347;BME280;32057;47.830;19.046;2023-02-20T07:58:17;101112.31;;;3.83;100.00
46347;BME280;32057;47.830;19.046;2023-02-20T08:00:43;101116.59;;;3.82;100.00
46347;BME280;32057;47.830;19.046;2023-02-20T08:03:09;101120.25;;;3.86;100.00
46347;BME280;32057;47.830;19.046;2023-02-20T08:05:34;101123.00;;;3.89;100.00
46347;BME280;32057;47.830;19.046;2023-02-20T08:08:00;101120.59;;;3.92;100.00
46347;BME280;32057;47.830;19.046;2023-02-20T08:10:26;101118.19;;;3.95;100.00
46347;BME280;32057;47.830;19.046;2023-02-20T08:12:53;101115.00;;;3.99;100.00
46347;BME280;32057;47.830;19.046;2023-02-20T08:15:19;101118.41;;;3.98;100.00
46347;BME280;32057;47.830;19.046;2023-02-20T08:17:45;101098.78;;;4.00;100.00
46347;BME280;32057;47.830;19.046;2023-02-20T08:20:11;101088.28;;;3.97;100.00
46347;BME280;32057;47.830;19.046;2023-02-20T08:22:37;101083.31;;;4.00;100.00
46347;BME280;32057;47.830;19.046;2023-02-20T08:25:03;101073.28;;;4.05;100.00
46347;BME280;32057;47.830;19.046;2023-02-20T08:27:29;101072.94;;;4.13;100.00
46347;BME280;32057;47.830;19.046;2023-02-20T08:29:55;101070.38;;;4.13;100.00
46347;BME280;32057;47.830;19.046;2023-02-20T08:32:21;101062.91;;;4.18;100.00
46347;BME280;32057;47.830;19.046;2023-02-20T08:34:46;101072.38;;;4.19;100.00
46347;BME280;32057;47.830;19.046;2023-02-20T08:37:12;101058.88;;;4.23;100.00
46347;BME280;32057;47.830;19.046;2023-02-20T08:39:37;101066.09;;;4.29;100.00
46347;BME280;32057;47.830;19.046;2023-02-20T08:42:03;101059.34;;;4.31;100.00
46347;BME280;32057;47.830;19.046;2023-02-20T08:44:28;101067.25;;;4.34;100.00
46347;BME280;32057;47.830;19.046;2023-02-20T08:46:54;101065.47;;;4.33;100.00
46347;BME280;32057;47.830;19.046;2023-02-20T08:49:20;101075.59;;;4.30;100.00
46347;BME280;32057;47.830;19.046;2023-02-20T08:51:46;101086.59;;;4.27;100.00
46347;BME280;32057;47.830;19.046;2023-02-20T08:54:14;101083.78;;;4.23;100.00
46347;BME280;32057;47.830;19.046;2023-02-20T08:56:43;101081.38;;;4.26;100.00
46347;BME280;32057;47.830;19.046;2023-02-20T08:59:08;101092.56;;;4.26;100.00
46347;BME280;32057;47.830;19.046;2023-02-20T09:01:34;101083.00;;;4.24;100.00
46347;BME280;32057;47.830;19.046;2023-02-20T09:03:59;101082.63;;;4.17;100.00
46347;BME280;32057;47.830;19.046;2023-02-20T09:06:25;101078.97;;;4.14;100.00
46347;BME280;32057;47.830;19.046;2023-02-20T09:08:52;101076.41;;;4.14;100.00
46347;BME280;32057;47.830;19.046;2023-02-20T09:11:18;101067.81;;;4.13;100.00
46347;BME280;32057;47.830;19.046;2023-02-20T09:13:45;101079.25;;;4.18;100.00
46347;BME280;32057;47.830;19.046;2023-02-20T09:16:12;101059.44;;;4.17;100.00
46347;BME280;32057;47.830;19.046;2023-02-20T09:18:38;101068.50;;;4.26;100.00
46347;BME280;32057;47.830;19.046;2023-02-20T09:21:07;101063.97;;;4.22;100.00
46347;BME280;32057;47.830;19.046;2023-02-20T09:23:33;101072.41;;;4.04;100.00
46347;BME280;32057;47.830;19.046;2023-02-20T09:25:59;101070.97;;;3.94;100.00
46347;BME280;32057;47.830;19.046;2023-02-20T09:28:24;101073.66;;;3.96;100.00
46347;BME280;32057;47.830;19.046;2023-02-20T09:30:49;101069.91;;;3.91;100.00
46347;BME280;32057;47.830;19.046;2023-02-20T09:33:19;101064.22;;;3.96;100.00
46347;BME280;32057;47.830;19.046;2023-02-20T09:35:44;101061.91;;;4.01;100.00
46347;BME280;32057;47.830;19.046;2023-02-20T09:38:09;101053.75;;;4.08;100.00
46347;BME280;32057;47.830;19.046;2023-02-20T09:40:35;101040.44;;;4.15;100.00
46347;BME280;32057;47.830;19.046;2023-02-20T09:45:33;101031.19;;;4.19;100.00
46347;BME280;32057;47.830;19.046;2023-02-20T09:55:50;101023.44;;;4.34;100.00
46347;BME280;32057;47.830;19.046;2023-02-20T09:59:00;101006.72;;;4.42;100.00
46347;BME280;32057;47.830;19.046;2023-02-20T10:01:28;101009.75;;;4.50;100.00
46347;BME280;32057;47.830;19.046;2023-02-20T10:04:01;101008.72;;;4.63;100.00
46347;BME280;32057;47.830;19.046;2023-02-20T10:06:30;101014.94;;;4.66;100.00
46347;BME280;32057;47.830;19.046;2023-02-20T10:08:58;101009.97;;;4.69;100.00
46347;BME280;32057;47.830;19.046;2023-02-20T10:19:51;101012.88;;;4.92;100.00
46347;BME280;32057;47.830;19.046;2023-02-20T10:22:34;100991.72;;;4.97;100.00
46347;BME280;32057;47.830;19.046;2023-02-20T10:25:21;100988.63;;;5.05;100.00
46347;BME280;32057;47.830;19.046;2023-02-20T10:28:05;100977.09;;;5.14;100.00
46347;BME280;32057;47.830;19.046;2023-02-20T10:36:15;100956.03;;;5.56;100.00
46347;BME280;32057;47.830;19.046;2023-02-20T10:41:31;100943.66;;;5.85;100.00
46347;BME280;32057;47.830;19.046;2023-02-20T10:44:06;100932.41;;;6.01;100.00
46347;BME280;32057;47.830;19.046;2023-02-20T10:46:41;100934.03;;;6.16;100.00
46347;BME280;32057;47.830;19.046;2023-02-20T10:49:19;100933.81;;;6.30;100.00
46347;BME280;32057;47.830;19.046;2023-02-20T10:51:50;100922.94;;;6.37;100.00
46347;BME280;32057;47.830;19.046;2023-02-20T10:54:30;100918.88;;;6.42;100.00
46347;BME280;32057;47.830;19.046;2023-02-20T10:57:09;100905.28;;;6.46;100.00
46347;BME280;32057;47.830;19.046;2023-02-20T10:59:45;100897.97;;;6.55;100.00
46347;BME280;32057;47.830;19.046;2023-02-20T11:02:21;100901.41;;;6.56;100.00
46347;BME280;32057;47.830;19.046;2023-02-20T11:04:54;100898.22;;;6.62;100.00
46347;BME280;32057;47.830;19.046;2023-02-20T11:07:21;100889.03;;;6.68;100.00
46347;BME280;32057;47.830;19.046;2023-02-20T11:09:48;100879.81;;;6.73;100.00
46347;BME280;32057;47.830;19.046;2023-02-20T11:12:44;100872.44;;;6.83;100.00
46347;BME280;32057;47.830;19.046;2023-02-20T11:15:28;100860.25;;;7.00;100.00
46347;BME280;32057;47.830;19.046;2023-02-20T11:17:57;100858.03;;;7.09;100.00
46347;BME280;32057;47.830;19.046;2023-02-20T11:23:06;100847.72;;;7.30;100.00
46347;BME280;32057;47.830;19.046;2023-02-20T11:25:36;100842.88;;;7.37;100.00
46347;BME280;32057;47.830;19.046;2023-02-20T11:28:07;100833.00;;;7.50;100.00
46347;BME280;32057;47.830;19.046;2023-02-20T11:30:35;100824.03;;;7.63;100.00
46347;BME280;32057;47.830;19.046;2023-02-20T11:35:31;100817.16;;;8.08;100.00
46347;BME280;32057;47.830;19.046;2023-02-20T11:40:42;100801.75;;;8.11;100.00
46347;BME280;32057;47.830;19.046;2023-02-20T11:45:38;100783.78;;;8.40;100.00
46347;BME280;32057;47.830;19.046;2023-02-20T11:48:12;100781.00;;;8.58;100.00
46347;BME280;32057;47.830;19.046;2023-02-20T11:50:39;100766.31;;;8.58;100.00
46347;BME280;32057;47.830;19.046;2023-02-20T11:53:05;100759.72;;;8.67;100.00
46347;BME280;32057;47.830;19.046;2023-02-20T11:55:32;100762.00;;;8.83;100.00
46347;BME280;32057;47.830;19.046;2023-02-20T11:57:58;100753.88;;;9.00;99.38
46347;BME280;32057;47.830;19.046;2023-02-20T12:00:25;100754.00;;;9.03;98.38
46347;BME280;32057;47.830;19.046;2023-02-20T12:03:03;100747.34;;;9.11;97.79
46347;BME280;32057;47.830;19.046;2023-02-20T12:08:02;100745.22;;;8.99;98.43
46347;BME280;32057;47.830;19.046;2023-02-20T12:10:34;100732.34;;;9.02;98.80
46347;BME280;32057;47.830;19.046;2023-02-20T12:13:01;100725.66;;;9.09;98.35
46347;BME280;32057;47.830;19.046;2023-02-20T12:15:27;100717.28;;;9.17;98.32
46347;BME280;32057;47.830;19.046;2023-02-20T12:21:03;100702.94;;;9.30;95.46
46347;BME280;32057;47.830;19.046;2023-02-20T12:23:53;100688.09;;;9.53;93.73
46347;BME280;32057;47.830;19.046;2023-02-20T12:26:52;100682.63;;;9.74;92.46
46347;BME280;32057;47.830;19.046;2023-02-20T12:56:52;100664.75;;;10.47;87.12
46347;BME280;32057;47.830;19.046;2023-02-20T12:59:45;100670.66;;;10.42;87.64
46347;BME280;32057;47.830;19.046;2023-02-20T13:04:54;100664.19;;;10.27;88.47
46347;BME280;32057;47.830;19.046;2023-02-20T13:07:36;100652.50;;;10.11;89.05
46347;BME280;32057;47.830;19.046;2023-02-20T13:12:40;100659.66;;;10.20;91.84
46347;BME280;32057;47.830;19.046;2023-02-20T13:18:03;100663.72;;;10.10;92.05
46347;BME280;32057;47.830;19.046;2023-02-20T13:20:37;100658.72;;;10.16;92.93
46347;BME280;32057;47.830;19.046;2023-02-20T13:23:26;100659.69;;;10.22;92.20
46347;BME280;32057;47.830;19.046;2023-02-20T13:25:52;100654.59;;;10.25;93.17
46347;BME280;32057;47.830;19.046;2023-02-20T13:33:40;100626.25;;;10.34;92.23
46347;BME280;32057;47.830;19.046;2023-02-20T13:36:39;100629.03;;;10.42;92.50
46347;BME280;32057;47.830;19.046;2023-02-20T13:52:39;100596.19;;;10.45;89.73
46347;BME280;32057;47.830;19.046;2023-02-20T13:57:52;100604.66;;;10.36;90.08
46347;BME280;32057;47.830;19.046;2023-02-20T14:00:53;100606.78;;;10.53;91.11
46347;BME280;32057;47.830;19.046;2023-02-20T14:03:28;100605.34;;;10.66;89.71
46347;BME280;32057;47.830;19.046;2023-02-20T14:06:10;100603.91;;;10.77;87.82
46347;BME280;32057;47.830;19.046;2023-02-20T14:08:38;100590.25;;;10.87;87.16
46347;BME280;32057;47.830;19.046;2023-02-20T14:13:52;100593.81;;;10.91;86.26
46347;BME280;32057;47.830;19.046;2023-02-20T14:18:58;100581.03;;;11.02;86.34
46347;BME280;32057;47.830;19.046;2023-02-20T14:21:23;100575.91;;;11.05;86.02
46347;BME280;32057;47.830;19.046;2023-02-20T14:23:51;100563.66;;;11.01;85.82
46347;BME280;32057;47.830;19.046;2023-02-20T14:26:24;100561.72;;;10.90;86.19
46347;BME280;32057;47.830;19.046;2023-02-20T14:28:52;100572.13;;;10.90;86.10
46347;BME280;32057;47.830;19.046;2023-02-20T14:33:56;100567.38;;;10.74;87.15
46347;BME280;32057;47.830;19.046;2023-02-20T14:41:58;100562.88;;;10.67;86.76
46347;BME280;32057;47.830;19.046;2023-02-20T14:44:25;100557.69;;;10.67;87.52
46347;BME280;32057;47.830;19.046;2023-02-20T14:46:53;100557.69;;;10.67;87.36
46347;BME280;32057;47.830;19.046;2023-02-20T14:49:28;100544.63;;;10.65;86.85
46347;BME280;32057;47.830;19.046;2023-02-20T14:52:13;100550.66;;;10.63;87.33
46347;BME280;32057;47.830;19.046;2023-02-20T14:54:41;100541.94;;;10.61;87.21
46347;BME280;32057;47.830;19.046;2023-02-20T14:57:13;100547.19;;;10.64;85.55
46347;BME280;32057;47.830;19.046;2023-02-20T14:59:40;100544.53;;;10.61;85.39
46347;BME280;32057;47.830;19.046;2023-02-20T15:02:14;100533.97;;;10.54;84.92
46347;BME280;32057;47.830;19.046;2023-02-20T15:07:16;100539.63;;;10.38;84.77
46347;BME280;32057;47.830;19.046;2023-02-20T15:09:45;100526.63;;;10.36;84.86
46347;BME280;32057;47.830;19.046;2023-02-20T15:12:32;100535.16;;;10.31;85.45
46347;BME280;32057;47.830;19.046;2023-02-20T15:15:03;100534.19;;;10.29;85.51
46347;BME280;32057;47.830;19.046;2023-02-20T15:17:32;100528.06;;;10.27;85.48
46347;BME280;32057;47.830;19.046;2023-02-20T15:19:57;100522.69;;;10.19;86.21
46347;BME280;32057;47.830;19.046;2023-02-20T15:22:34;100515.75;;;10.20;86.13
46347;BME280;32057;47.830;19.046;2023-02-20T15:25:27;100514.69;;;10.11;87.08
46347;BME280;32057;47.830;19.046;2023-02-20T15:33:51;100503.31;;;10.08;86.36